Time;durP1;ratioP1;P1;durP2;ratioP2;P2;SDS_P1;SDS_P2;PMS_P1;PMS_P2;Temp;Humidity;BMP_temperature;BMP_pressure;BME280_temperature;BME280_humidity;BME280_pressure;Samples;Min_cycle;Max_cycle;Signal;HPM_P1;HPM_P2
2023/03/10 00:02:21;;;;;;;15.23;9.67;;;1.70;86.50;;;;;;5060506;27;20039;-78
2023/03/10 00:04:53;;;;;;;17.63;10.67;;;2.10;86.80;;;;;;5074645;28;20138;-78
2023/03/10 00:07:19;;;;;;;18.17;11.40;;;1.70;86.50;;;;;;5074468;28;20485;-78
2023/03/10 00:09:45;;;;;;;16.97;10.73;;;1.80;86.40;;;;;;5068610;27;20115;-79
2023/03/10 00:12:11;;;;;;;18.03;10.17;;;1.90;86.60;;;;;;5096880;28;20074;-78
2023/03/10 00:14:38;;;;;;;15.57;9.83;;;1.70;86.50;;;;;;5099965;28;20040;-78
2023/03/10 00:17:03;;;;;;;17.80;10.37;;;1.80;86.60;;;;;;5092960;27;20079;-78
2023/03/10 00:19:29;;;;;;;20.43;12.10;;;1.70;86.50;;;;;;5097040;27;20071;-78
2023/03/10 00:21:55;;;;;;;16.40;10.30;;;1.90;86.60;;;;;;5064363;28;20484;-78
2023/03/10 00:24:21;;;;;;;16.57;9.77;;;1.70;86.50;;;;;;5091964;28;20031;-78
2023/03/10 00:26:49;;;;;;;17.03;10.73;;;2.00;86.70;;;;;;5101052;28;20388;-78
2023/03/10 00:29:15;;;;;;;17.13;10.67;;;2.30;86.90;;;;;;5083887;27;20037;-78
2023/03/10 00:31:41;;;;;;;16.17;9.70;;;1.70;86.50;;;;;;5089862;28;20042;-78
2023/03/10 00:34:06;;;;;;;16.27;10.57;;;1.70;86.40;;;;;;5074469;28;20118;-78
2023/03/10 00:36:32;;;;;;;14.87;9.37;;;1.70;86.40;;;;;;5061963;28;20039;-77
2023/03/10 00:38:59;;;;;;;17.30;10.50;;;1.90;86.60;;;;;;5084361;28;20085;-78
2023/03/10 00:41:29;;;;;;;19.30;10.73;;;2.30;86.80;;;;;;5092759;27;20137;-78
2023/03/10 00:43:56;;;;;;;14.67;9.30;;;1.70;86.50;;;;;;5092280;27;20031;-78
2023/03/10 00:46:23;;;;;;;13.63;8.70;;;2.40;87.00;;;;;;5108063;27;20038;-78
2023/03/10 00:48:49;;;;;;;14.93;9.50;;;1.70;86.60;;;;;;5087132;28;20122;-78
2023/03/10 00:51:15;;;;;;;15.50;9.40;;;1.70;86.50;;;;;;5110837;28;20533;-78
2023/03/10 00:53:41;;;;;;;15.40;9.93;;;2.00;86.70;;;;;;5094732;28;20040;-78
2023/03/10 00:56:18;;;;;;;15.63;9.53;;;1.70;86.60;;;;;;5089427;27;20039;-78
2023/03/10 00:58:45;;;;;;;14.20;8.97;;;1.70;86.60;;;;;;5111445;27;20035;-78
2023/03/10 01:01:13;;;;;;;14.03;9.33;;;1.70;86.60;;;;;;5090057;27;20038;-78
2023/03/10 01:03:39;;;;;;;14.83;9.47;;;1.70;86.60;;;;;;5101038;27;20042;-78
2023/03/10 01:06:04;;;;;;;15.53;9.40;;;1.70;86.50;;;;;;5115522;27;20040;-78
2023/03/10 01:08:30;;;;;;;14.50;9.43;;;1.70;86.60;;;;;;5070661;27;20027;-77
2023/03/10 01:10:56;;;;;;;14.57;9.90;;;1.80;86.70;;;;;;5071710;27;20475;-78
2023/03/10 01:13:21;;;;;;;16.03;9.87;;;1.70;86.60;;;;;;5056033;27;20028;-78
2023/03/10 01:15:47;;;;;;;14.50;9.30;;;1.70;86.60;;;;;;5090410;27;20040;-77
2023/03/10 01:18:14;;;;;;;14.73;9.90;;;2.00;86.80;;;;;;5089526;27;20078;-77
2023/03/10 01:20:40;;;;;;;16.13;10.37;;;1.70;86.70;;;;;;5074052;27;20043;-77
2023/03/10 01:23:14;;;;;;;15.27;9.97;;;1.70;86.60;;;;;;5064016;28;20083;-77
2023/03/10 01:25:40;;;;;;;14.45;9.88;;;1.70;86.60;;;;;;5077740;28;20364;-78
2023/03/10 01:28:06;;;;;;;15.20;9.97;;;1.70;86.60;;;;;;5092629;28;20077;-78
2023/03/10 01:30:32;;;;;;;14.90;9.90;;;1.80;86.60;;;;;;5064186;28;20035;-77
2023/03/10 01:32:57;;;;;;;16.67;10.17;;;1.80;86.60;;;;;;5085759;28;20089;-78
2023/03/10 01:35:23;;;;;;;15.73;10.07;;;2.00;86.80;;;;;;5077545;27;20044;-77
2023/03/10 01:37:49;;;;;;;15.70;10.70;;;1.70;86.60;;;;;;5074882;27;20530;-78
2023/03/10 01:40:17;;;;;;;16.63;11.40;;;1.70;86.60;;;;;;5087702;28;20035;-77
2023/03/10 01:42:44;;;;;;;15.70;10.93;;;1.70;86.60;;;;;;5105334;27;20089;-78
2023/03/10 01:45:29;;;;;;;17.13;11.27;;;1.80;86.60;;;;;;5111431;27;20043;-77
2023/03/10 01:47:55;;;;;;;15.20;10.57;;;1.70;86.60;;;;;;5103741;27;20035;-77
2023/03/10 01:50:22;;;;;;;15.50;10.33;;;1.70;86.50;;;;;;5108244;27;20034;-77
2023/03/10 01:52:55;;;;;;;15.80;10.57;;;1.80;86.60;;;;;;5100075;27;20030;-77
2023/03/10 01:55:26;;;;;;;16.57;10.70;;;1.90;86.60;;;;;;5072934;28;20386;-77
2023/03/10 01:57:54;;;;;;;18.23;11.47;;;1.80;86.60;;;;;;5104221;27;20651;-77
2023/03/10 02:00:21;;;;;;;17.70;11.73;;;1.80;86.60;;;;;;5102665;27;20036;-77
2023/03/10 02:03:09;;;;;;;16.77;10.77;;;1.80;86.60;;;;;;5093813;27;20038;-77
2023/03/10 02:05:57;;;;;;;15.27;10.60;;;1.70;86.60;;;;;;5087482;28;20039;-77
2023/03/10 02:08:24;;;;;;;15.03;10.07;;;1.70;86.60;;;;;;5096716;28;20127;-77
2023/03/10 02:10:50;;;;;;;16.77;11.20;;;1.70;86.60;;;;;;5088966;27;20040;-77
2023/03/10 02:13:17;;;;;;;16.17;11.07;;;1.70;86.60;;;;;;5103426;28;20042;-76
2023/03/10 02:15:43;;;;;;;17.23;11.10;;;1.80;86.60;;;;;;5078831;27;20057;-77
2023/03/10 02:18:12;;;;;;;15.77;10.80;;;1.90;86.70;;;;;;5091928;27;20031;-77
2023/03/10 02:20:52;;;;;;;13.83;9.53;;;1.80;86.70;;;;;;5088612;27;20122;-76
2023/03/10 02:23:28;;;;;;;16.53;10.53;;;1.80;86.60;;;;;;5102996;27;20085;-76
2023/03/10 02:26:03;;;;;;;14.70;9.67;;;2.30;87.10;;;;;;5082845;28;20101;-76
2023/03/10 02:28:29;;;;;;;16.47;10.33;;;1.80;87.20;;;;;;5104873;28;20027;-77
2023/03/10 02:30:56;;;;;;;15.33;10.10;;;2.00;86.80;;;;;;5076136;27;20089;-77
2023/03/10 02:33:25;;;;;;;15.73;10.60;;;1.80;86.70;;;;;;5084473;27;20035;-77
2023/03/10 02:35:52;;;;;;;17.23;10.33;;;2.00;86.70;;;;;;5110567;27;20035;-77
2023/03/10 02:38:18;;;;;;;16.93;11.47;;;1.80;86.70;;;;;;5105945;27;20042;-77
2023/03/10 02:40:51;;;;;;;14.70;10.17;;;1.80;86.70;;;;;;5087865;27;20047;-77
2023/03/10 02:43:32;;;;;;;16.80;10.10;;;1.80;86.70;;;;;;5084765;28;20108;-77
2023/03/10 02:46:01;;;;;;;16.00;10.67;;;1.80;86.80;;;;;;5099015;27;20491;-77
2023/03/10 02:48:33;;;;;;;15.27;10.23;;;1.80;86.60;;;;;;5096882;28;20031;-77
2023/03/10 02:51:03;;;;;;;15.27;10.30;;;1.80;86.70;;;;;;5109013;27;20043;-77
2023/03/10 02:53:29;;;;;;;14.63;9.77;;;1.80;86.70;;;;;;5101121;28;20035;-77
2023/03/10 02:55:55;;;;;;;15.90;10.60;;;1.70;86.60;;;;;;5087693;28;20058;-77
2023/03/10 02:58:23;;;;;;;16.93;10.80;;;2.10;86.80;;;;;;5108221;27;20027;-77
2023/03/10 03:00:49;;;;;;;15.67;9.93;;;2.00;86.80;;;;;;5065293;27;20122;-77
2023/03/10 03:03:18;;;;;;;16.20;10.90;;;1.80;86.70;;;;;;5092088;28;20031;-77
2023/03/10 03:05:44;;;;;;;15.43;10.50;;;2.00;86.80;;;;;;5088380;27;20066;-77
2023/03/10 03:08:10;;;;;;;16.03;10.63;;;1.90;86.80;;;;;;5067058;28;20028;-77
2023/03/10 03:10:36;;;;;;;16.27;10.80;;;1.80;86.60;;;;;;5108578;27;20042;-77
2023/03/10 03:13:03;;;;;;;16.23;11.37;;;1.80;86.60;;;;;;5091359;28;20789;-76
2023/03/10 03:15:29;;;;;;;16.67;11.27;;;2.10;86.80;;;;;;5088813;27;20034;-77
2023/03/10 03:17:57;;;;;;;16.53;11.07;;;1.80;86.70;;;;;;5109824;27;20436;-77
2023/03/10 03:20:24;;;;;;;17.77;11.73;;;2.00;86.80;;;;;;5095772;28;20088;-77
2023/03/10 03:22:50;;;;;;;19.33;12.37;;;1.80;86.70;;;;;;5106260;28;20073;-76
2023/03/10 03:25:19;;;;;;;20.63;13.47;;;1.80;86.80;;;;;;5053420;28;20043;-77
2023/03/10 03:27:45;;;;;;;19.80;13.67;;;1.80;86.60;;;;;;5109608;28;20114;-77
2023/03/10 03:30:19;;;;;;;20.90;14.23;;;1.90;86.60;;;;;;5081206;28;20474;-76
2023/03/10 03:32:45;;;;;;;23.73;15.27;;;1.80;86.60;;;;;;5076285;28;20248;-77
2023/03/10 03:35:15;;;;;;;22.47;14.63;;;1.70;86.50;;;;;;5068396;28;20027;-77
2023/03/10 03:37:42;;;;;;;24.20;15.07;;;1.80;86.70;;;;;;5083849;28;20046;-77
2023/03/10 03:40:13;;;;;;;21.03;14.20;;;1.80;86.70;;;;;;5089097;28;20482;-76
2023/03/10 03:42:50;;;;;;;22.23;14.63;;;1.80;86.80;;;;;;5081295;28;20045;-77
2023/03/10 03:45:18;;;;;;;22.83;15.10;;;1.80;86.80;;;;;;5101990;28;20042;-77
2023/03/10 03:47:44;;;;;;;23.03;14.63;;;1.80;86.70;;;;;;5090917;28;20043;-77
2023/03/10 03:50:12;;;;;;;21.30;13.93;;;2.10;86.90;;;;;;5083816;28;20041;-77
2023/03/10 03:52:38;;;;;;;20.83;13.97;;;1.80;86.70;;;;;;5104347;28;20592;-77
2023/03/10 03:55:05;;;;;;;21.33;13.23;;;1.80;86.80;;;;;;5083359;28;20032;-76
2023/03/10 03:57:31;;;;;;;19.83;12.93;;;1.80;86.80;;;;;;5098805;28;20056;-77
2023/03/10 03:59:57;;;;;;;19.23;12.50;;;2.00;86.90;;;;;;5088957;28;20110;-77
2023/03/10 04:02:23;;;;;;;20.40;12.80;;;1.80;86.80;;;;;;5102208;28;20114;-76
2023/03/10 04:04:49;;;;;;;17.20;12.07;;;1.90;86.90;;;;;;5096658;28;20092;-77
2023/03/10 04:07:15;;;;;;;17.83;12.03;;;1.80;86.80;;;;;;5089676;28;20035;-78
2023/03/10 04:09:42;;;;;;;16.77;11.20;;;1.80;86.80;;;;;;5087051;28;20046;-77
2023/03/10 04:12:09;;;;;;;16.93;10.80;;;2.20;87.00;;;;;;5099830;28;20840;-77
2023/03/10 04:14:35;;;;;;;15.50;10.37;;;1.80;86.80;;;;;;5089650;28;20380;-77
2023/03/10 04:17:02;;;;;;;13.93;9.47;;;1.80;86.80;;;;;;5102493;28;20491;-77
2023/03/10 04:19:27;;;;;;;14.80;10.00;;;1.80;86.80;;;;;;5068186;28;20047;-77
2023/03/10 04:21:53;;;;;;;14.53;9.83;;;1.80;86.80;;;;;;5087441;28;20048;-77
2023/03/10 04:24:19;;;;;;;13.37;8.63;;;1.80;86.80;;;;;;5081773;28;20035;-77
2023/03/10 04:26:45;;;;;;;13.67;8.80;;;1.80;86.80;;;;;;5103320;28;20035;-76
2023/03/10 04:29:11;;;;;;;13.50;8.53;;;1.80;86.80;;;;;;5090833;28;20038;-76
2023/03/10 04:31:37;;;;;;;13.33;8.60;;;1.80;86.80;;;;;;5065553;28;20047;-76
2023/03/10 04:34:03;;;;;;;12.30;8.23;;;1.80;86.70;;;;;;5117085;28;20505;-77
2023/03/10 04:36:29;;;;;;;13.03;7.97;;;1.80;86.80;;;;;;5088826;28;20031;-77
2023/03/10 04:38:55;;;;;;;13.67;8.70;;;1.80;86.70;;;;;;5104422;27;20513;-76
2023/03/10 04:41:21;;;;;;;14.03;8.97;;;1.80;86.70;;;;;;5103372;28;20036;-77
2023/03/10 04:43:47;;;;;;;12.30;8.20;;;1.90;86.80;;;;;;5102520;27;20040;-77
2023/03/10 04:46:13;;;;;;;11.87;7.83;;;1.90;86.80;;;;;;5089762;28;20110;-76
2023/03/10 04:48:39;;;;;;;14.50;8.57;;;1.80;86.70;;;;;;5090945;27;20035;-77
2023/03/10 04:51:07;;;;;;;12.17;7.93;;;1.80;86.80;;;;;;5086737;27;20069;-77
2023/03/10 04:53:34;;;;;;;13.13;8.70;;;1.90;86.80;;;;;;5108500;28;20429;-77
2023/03/10 04:56:02;;;;;;;11.87;7.90;;;1.80;86.80;;;;;;5101109;28;20071;-76
2023/03/10 04:58:28;;;;;;;13.93;8.40;;;1.80;86.80;;;;;;5089396;27;20039;-77
2023/03/10 05:00:55;;;;;;;14.30;9.10;;;1.80;86.80;;;;;;5102116;28;20036;-77
2023/03/10 05:03:21;;;;;;;12.07;7.70;;;1.80;86.80;;;;;;5107306;27;20114;-77
2023/03/10 05:05:46;;;;;;;13.07;8.43;;;1.80;86.70;;;;;;5086218;28;20539;-77
2023/03/10 05:08:12;;;;;;;13.60;8.33;;;1.80;86.70;;;;;;5132907;27;20410;-77
2023/03/10 05:10:43;;;;;;;13.13;7.93;;;1.80;86.70;;;;;;5088864;27;20035;-76
2023/03/10 05:13:11;;;;;;;12.77;8.50;;;1.80;86.70;;;;;;5093024;27;20031;-77
2023/03/10 05:15:38;;;;;;;13.93;8.53;;;1.80;86.60;;;;;;5089975;27;20034;-77
2023/03/10 05:18:04;;;;;;;13.57;8.30;;;2.00;86.70;;;;;;5089938;28;20088;-77
2023/03/10 05:20:30;;;;;;;14.30;9.50;;;1.80;86.60;;;;;;5083551;27;20081;-77
2023/03/10 05:22:56;;;;;;;13.30;8.87;;;1.80;86.70;;;;;;5090471;27;20126;-77
2023/03/10 05:25:21;;;;;;;15.13;9.63;;;1.80;86.70;;;;;;5090483;28;20474;-77
2023/03/10 05:27:47;;;;;;;13.30;8.30;;;2.10;86.90;;;;;;5074307;27;20039;-78
2023/03/10 05:30:14;;;;;;;12.77;8.43;;;1.80;86.80;;;;;;5086762;27;20039;-77
2023/03/10 05:32:42;;;;;;;13.67;8.87;;;1.80;86.90;;;;;;5108600;27;20039;-77
2023/03/10 05:35:08;;;;;;;13.03;7.83;;;1.90;86.90;;;;;;5113744;27;20367;-77
2023/03/10 05:37:38;;;;;;;14.10;8.70;;;1.80;86.80;;;;;;5091531;27;20043;-77
2023/03/10 05:40:11;;;;;;;12.50;8.23;;;1.80;86.80;;;;;;5084924;27;20066;-77
2023/03/10 05:42:36;;;;;;;12.77;8.07;;;1.80;86.80;;;;;;5100968;27;20131;-77
2023/03/10 05:45:04;;;;;;;12.83;8.40;;;1.80;86.80;;;;;;5085379;28;20498;-78
2023/03/10 05:47:32;;;;;;;12.67;8.70;;;1.80;86.80;;;;;;5081269;27;20042;-77
2023/03/10 05:49:59;;;;;;;13.10;8.47;;;1.80;86.80;;;;;;5090809;27;20027;-76
2023/03/10 05:52:25;;;;;;;13.87;8.17;;;1.80;86.80;;;;;;5104874;27;20035;-76
2023/03/10 05:54:51;;;;;;;14.97;9.23;;;1.80;86.80;;;;;;5095757;27;20039;-78
2023/03/10 05:57:16;;;;;;;14.47;9.13;;;2.00;86.90;;;;;;5102146;28;20076;-77
2023/03/10 05:59:42;;;;;;;14.63;9.50;;;1.80;86.70;;;;;;5082465;28;20085;-78
2023/03/10 06:02:08;;;;;;;13.73;8.90;;;2.00;86.80;;;;;;5095061;27;20467;-77
2023/03/10 06:04:33;;;;;;;15.17;9.87;;;1.80;86.80;;;;;;5079773;28;20476;-77
2023/03/10 06:07:00;;;;;;;13.23;9.10;;;1.80;86.50;;;;;;5115996;27;20044;-78
2023/03/10 06:09:26;;;;;;;15.63;9.90;;;1.80;86.60;;;;;;5103296;27;20032;-77
2023/03/10 06:11:52;;;;;;;13.40;9.50;;;1.80;86.70;;;;;;5091600;27;20035;-77
2023/03/10 06:14:18;;;;;;;14.00;9.30;;;1.90;86.70;;;;;;5061188;27;20471;-77
2023/03/10 06:16:49;;;;;;;15.83;10.40;;;1.80;86.70;;;;;;5099573;28;20039;-78
2023/03/10 06:19:16;;;;;;;15.50;9.67;;;1.80;86.80;;;;;;5091193;27;20035;-77
2023/03/10 06:21:42;;;;;;;15.43;9.60;;;1.80;86.70;;;;;;5106168;28;20061;-78
2023/03/10 06:24:08;;;;;;;16.90;10.60;;;2.00;86.80;;;;;;5091759;28;20039;-77
2023/03/10 06:26:34;;;;;;;17.93;11.60;;;1.80;86.80;;;;;;5068184;28;20043;-77
2023/03/10 06:28:59;;;;;;;16.63;11.40;;;1.90;86.70;;;;;;5088826;27;20027;-77
2023/03/10 06:31:25;;;;;;;17.53;10.13;;;1.80;86.70;;;;;;5053165;28;20068;-78
2023/03/10 06:33:51;;;;;;;16.87;11.13;;;1.90;86.70;;;;;;5068588;28;20129;-78
2023/03/10 06:36:18;;;;;;;17.47;11.70;;;1.80;86.60;;;;;;5081505;27;20064;-77
2023/03/10 06:38:43;;;;;;;18.80;12.20;;;2.10;86.80;;;;;;5089415;27;20784;-77
2023/03/10 06:41:09;;;;;;;17.83;11.80;;;2.10;86.90;;;;;;5073847;27;20081;-77
2023/03/10 06:43:36;;;;;;;19.70;12.37;;;1.90;87.00;;;;;;5097925;27;20040;-78
2023/03/10 06:46:04;;;;;;;21.47;13.37;;;2.00;86.80;;;;;;5082754;27;20035;-78
2023/03/10 06:48:30;;;;;;;23.07;13.30;;;1.90;86.70;;;;;;5108343;27;20383;-78
2023/03/10 06:50:55;;;;;;;22.20;14.63;;;1.90;86.70;;;;;;5098579;28;20039;-77
2023/03/10 06:53:21;;;;;;;21.33;13.77;;;1.80;86.70;;;;;;5074786;28;20031;-77
2023/03/10 06:56:01;;;;;;;22.10;14.63;;;1.90;86.80;;;;;;5113460;27;20039;-78
2023/03/10 06:58:28;;;;;;;25.03;15.47;;;1.90;86.90;;;;;;5100938;27;20047;-78
2023/03/10 07:00:53;;;;;;;26.10;15.67;;;2.40;87.00;;;;;;5102795;28;20043;-78
2023/03/10 07:03:19;;;;;;;25.93;16.30;;;1.90;86.70;;;;;;5076413;27;20035;-78
2023/03/10 07:05:45;;;;;;;28.53;17.13;;;1.90;86.70;;;;;;5089691;28;20529;-78
2023/03/10 07:08:11;;;;;;;29.90;18.23;;;1.90;86.90;;;;;;5081713;28;20486;-78
2023/03/10 07:10:36;;;;;;;28.10;17.50;;;2.20;87.00;;;;;;5058966;28;20487;-78
2023/03/10 07:13:02;;;;;;;27.33;17.30;;;1.80;86.70;;;;;;5067894;27;20172;-78
2023/03/10 07:15:28;;;;;;;31.63;18.70;;;1.90;86.80;;;;;;5072910;27;20035;-78
2023/03/10 07:17:55;;;;;;;29.63;18.90;;;1.90;87.20;;;;;;5082350;27;20031;-78
2023/03/10 07:20:22;;;;;;;33.47;18.97;;;1.90;86.90;;;;;;5110094;28;20053;-78
2023/03/10 07:22:48;;;;;;;28.27;16.97;;;1.90;86.80;;;;;;5081033;27;20119;-78
2023/03/10 07:25:14;;;;;;;35.20;20.37;;;1.90;86.80;;;;;;5068414;28;20110;-78
2023/03/10 07:27:39;;;;;;;31.43;18.80;;;1.90;86.80;;;;;;5072683;28;20039;-78
2023/03/10 07:30:06;;;;;;;30.50;18.00;;;1.90;86.80;;;;;;5101171;28;20031;-77
2023/03/10 07:32:32;;;;;;;30.53;19.17;;;2.00;86.80;;;;;;5076725;28;20566;-77
2023/03/10 07:34:57;;;;;;;30.93;18.13;;;2.00;86.70;;;;;;5069727;28;20031;-78
2023/03/10 07:37:23;;;;;;;31.33;18.03;;;2.00;86.60;;;;;;5053323;27;20035;-77
2023/03/10 07:39:49;;;;;;;30.67;19.07;;;2.00;86.70;;;;;;5093704;28;20039;-77
2023/03/10 07:42:14;;;;;;;28.73;17.80;;;2.00;86.70;;;;;;5093139;28;20544;-78
2023/03/10 07:44:40;;;;;;;33.70;19.13;;;2.00;86.60;;;;;;5089378;28;20440;-78
2023/03/10 07:47:06;;;;;;;27.93;17.97;;;2.30;86.90;;;;;;5087957;28;20118;-77
2023/03/10 07:49:31;;;;;;;29.27;17.70;;;2.00;86.70;;;;;;5068914;28;20035;-78
2023/03/10 07:51:57;;;;;;;31.83;18.93;;;2.30;86.80;;;;;;5076588;28;20080;-79
2023/03/10 07:54:23;;;;;;;31.57;19.07;;;2.20;86.70;;;;;;5064861;28;20042;-79
2023/03/10 07:56:48;;;;;;;29.27;18.43;;;2.00;86.60;;;;;;5082860;28;20035;-78
2023/03/10 07:59:14;;;;;;;29.13;17.97;;;2.00;86.60;;;;;;5078456;28;20443;-77
2023/03/10 08:01:40;;;;;;;26.57;16.67;;;2.00;86.50;;;;;;5054027;28;20040;-77
2023/03/10 08:04:06;;;;;;;29.27;17.53;;;2.00;86.60;;;;;;5044961;28;20047;-78
2023/03/10 08:06:34;;;;;;;26.97;16.70;;;2.00;86.60;;;;;;5078516;28;20607;-78
2023/03/10 08:08:59;;;;;;;27.20;16.73;;;2.00;86.70;;;;;;5095434;28;20043;-78
2023/03/10 08:11:26;;;;;;;27.53;16.73;;;2.40;86.80;;;;;;5078851;28;20043;-78
2023/03/10 08:13:52;;;;;;;24.47;16.03;;;2.00;86.50;;;;;;5081459;28;20032;-77
2023/03/10 08:16:20;;;;;;;24.10;15.17;;;2.00;86.60;;;;;;5099400;28;20043;-78
2023/03/10 08:18:45;;;;;;;24.40;15.50;;;2.10;86.60;;;;;;5082537;28;20104;-78
2023/03/10 08:21:11;;;;;;;26.53;16.87;;;2.10;86.50;;;;;;5065396;28;20495;-78
2023/03/10 08:23:37;;;;;;;25.70;16.23;;;2.10;86.50;;;;;;5082119;28;20047;-78
2023/03/10 08:26:05;;;;;;;24.33;15.30;;;2.10;86.60;;;;;;5098894;28;20039;-78
2023/03/10 08:28:33;;;;;;;24.37;15.47;;;2.10;86.60;;;;;;5082028;28;20137;-78
2023/03/10 08:31:05;;;;;;;23.93;15.73;;;2.10;86.60;;;;;;5082159;28;20047;-78
2023/03/10 08:33:31;;;;;;;23.97;15.63;;;2.10;86.50;;;;;;5066438;28;20059;-77
2023/03/10 08:36:11;;;;;;;23.60;15.07;;;2.10;86.50;;;;;;5065495;28;20482;-77
2023/03/10 08:38:38;;;;;;;23.67;14.77;;;2.10;86.50;;;;;;5098809;28;20047;-78
2023/03/10 08:41:16;;;;;;;23.43;14.43;;;2.10;86.40;;;;;;5098781;28;20032;-77
2023/03/10 08:43:42;;;;;;;23.97;15.00;;;2.10;86.50;;;;;;5098990;28;20075;-78
2023/03/10 08:46:09;;;;;;;22.03;15.00;;;2.20;86.40;;;;;;5098708;28;20040;-78
2023/03/10 08:48:35;;;;;;;21.80;14.50;;;2.20;86.20;;;;;;5065316;28;20468;-78
2023/03/10 08:51:01;;;;;;;22.83;14.57;;;2.30;86.20;;;;;;5082004;28;20037;-78
2023/03/10 08:53:26;;;;;;;21.53;13.97;;;2.20;86.10;;;;;;5098421;28;20070;-78
2023/03/10 08:55:52;;;;;;;23.43;15.53;;;2.20;86.00;;;;;;5064628;28;20040;-78
2023/03/10 08:58:18;;;;;;;22.70;14.33;;;2.20;86.10;;;;;;5081784;28;20177;-78
2023/03/10 09:00:43;;;;;;;22.13;13.67;;;2.20;86.10;;;;;;5081912;28;20044;-78
2023/03/10 09:03:13;;;;;;;24.50;14.77;;;2.20;86.20;;;;;;5098348;28;20577;-78
2023/03/10 09:05:39;;;;;;;22.87;14.63;;;2.80;86.40;;;;;;5082672;27;20409;-76
2023/03/10 09:08:06;;;;;;;22.57;14.27;;;2.30;86.10;;;;;;5101670;27;20039;-77
2023/03/10 09:10:35;;;;;;;22.33;14.63;;;2.50;86.20;;;;;;5106814;28;20682;-78
2023/03/10 09:13:02;;;;;;;22.50;14.47;;;2.30;86.00;;;;;;5081035;28;20031;-77
2023/03/10 09:15:27;;;;;;;23.70;14.83;;;2.30;86.00;;;;;;5081260;28;20032;-78
2023/03/10 09:17:54;;;;;;;21.97;14.50;;;2.30;86.00;;;;;;5075215;28;20072;-78
2023/03/10 09:20:24;;;;;;;27.60;16.00;;;2.30;86.00;;;;;;5074607;28;20035;-78
2023/03/10 09:22:52;;;;;;;24.57;14.73;;;2.30;86.00;;;;;;5075941;28;20056;-78
2023/03/10 09:25:19;;;;;;;25.93;15.37;;;2.30;86.00;;;;;;5096879;28;20376;-77
2023/03/10 09:27:44;;;;;;;24.47;15.10;;;2.30;86.00;;;;;;5064428;28;20501;-78
2023/03/10 09:30:10;;;;;;;23.87;14.93;;;2.30;85.90;;;;;;5098232;28;20039;-78
2023/03/10 09:32:36;;;;;;;22.57;13.83;;;2.30;85.90;;;;;;5097482;28;20031;-80
2023/03/10 09:35:02;;;;;;;23.10;15.27;;;2.30;86.00;;;;;;5098054;28;20092;-77
2023/03/10 09:37:28;;;;;;;24.37;14.60;;;2.30;86.00;;;;;;5065205;27;20040;-77
2023/03/10 09:39:53;;;;;;;23.13;15.00;;;2.70;86.40;;;;;;5095846;27;20043;-78
2023/03/10 09:42:43;;;;;;;22.30;14.60;;;2.40;86.10;;;;;;5094146;27;20042;-78
2023/03/10 09:45:18;;;;;;;22.23;14.10;;;2.40;86.20;;;;;;5067893;28;20052;-77
2023/03/10 09:47:47;;;;;;;22.77;14.10;;;2.80;86.40;;;;;;5077307;28;20119;-77
2023/03/10 09:50:41;;;;;;;21.70;14.20;;;2.30;86.00;;;;;;5077204;28;20036;-78
2023/03/10 09:53:35;;;;;;;24.23;14.67;;;2.30;86.20;;;;;;5092198;28;20040;-77
2023/03/10 09:56:08;;;;;;;20.40;13.03;;;2.30;86.20;;;;;;5080269;28;20047;-77
2023/03/10 09:58:44;;;;;;;20.33;13.57;;;2.30;86.20;;;;;;5097014;28;20043;-77
2023/03/10 10:01:23;;;;;;;20.27;13.30;;;2.30;86.10;;;;;;5097125;28;20088;-77
2023/03/10 10:03:52;;;;;;;22.03;13.70;;;2.30;86.10;;;;;;5121569;27;20032;-77
2023/03/10 10:06:31;;;;;;;19.00;12.33;;;2.30;86.10;;;;;;5080140;28;20123;-77
2023/03/10 10:09:08;;;;;;;18.33;12.20;;;2.40;86.20;;;;;;5079915;28;20031;-77
2023/03/10 10:11:38;;;;;;;20.17;11.93;;;2.30;86.20;;;;;;5080304;28;20032;-77
2023/03/10 10:14:14;;;;;;;19.87;12.90;;;2.40;86.20;;;;;;5080649;28;20383;-77
2023/03/10 10:16:50;;;;;;;20.07;12.87;;;2.30;86.20;;;;;;5079964;28;20043;-78
2023/03/10 10:19:20;;;;;;;19.30;12.23;;;2.40;86.30;;;;;;5076490;28;20048;-77
2023/03/10 10:21:49;;;;;;;20.47;12.67;;;2.30;86.40;;;;;;5059639;28;20092;-78
2023/03/10 10:24:17;;;;;;;20.10;12.77;;;2.30;86.60;;;;;;5059972;28;20052;-77
2023/03/10 10:26:42;;;;;;;21.63;13.30;;;2.30;86.30;;;;;;5061408;28;20044;-77
2023/03/10 10:29:19;;;;;;;21.60;13.23;;;2.30;86.30;;;;;;5096668;28;20032;-78
2023/03/10 10:32:12;;;;;;;19.37;12.70;;;2.30;86.30;;;;;;5079863;28;20039;-77
2023/03/10 10:34:41;;;;;;;21.47;12.73;;;2.30;86.40;;;;;;5079804;28;20031;-77
2023/03/10 10:37:27;;;;;;;18.00;12.13;;;2.50;86.50;;;;;;5079006;28;20034;-77
2023/03/10 10:39:55;;;;;;;22.00;13.63;;;2.30;86.50;;;;;;5079468;28;20044;-77
2023/03/10 10:42:32;;;;;;;20.63;13.97;;;2.60;86.60;;;;;;5096448;28;20047;-77
2023/03/10 10:45:21;;;;;;;23.17;13.70;;;2.20;86.50;;;;;;5079138;28;20122;-77
2023/03/10 10:47:49;;;;;;;20.90;13.00;;;2.20;86.50;;;;;;5079781;28;20040;-77
2023/03/10 10:50:22;;;;;;;22.73;13.43;;;2.30;86.70;;;;;;5080213;28;20126;-77
2023/03/10 10:52:52;;;;;;;19.97;13.23;;;2.20;86.60;;;;;;5097937;28;20197;-77
2023/03/10 10:55:27;;;;;;;21.47;14.00;;;2.20;86.60;;;;;;5080199;28;20036;-77
2023/03/10 10:57:59;;;;;;;21.77;13.77;;;2.20;86.60;;;;;;5078950;28;20039;-77
2023/03/10 11:00:33;;;;;;;21.07;13.43;;;2.20;86.50;;;;;;5095865;28;20108;-77
2023/03/10 11:02:59;;;;;;;22.63;14.38;;;2.20;86.60;;;;;;5095718;28;20046;-76
2023/03/10 11:05:36;;;;;;;20.00;12.87;;;2.20;86.50;;;;;;5079117;28;20039;-77
2023/03/10 11:08:18;;;;;;;20.57;13.23;;;2.20;86.50;;;;;;5062454;28;20039;-77
2023/03/10 11:10:55;;;;;;;21.93;13.07;;;2.10;86.30;;;;;;5095765;28;20036;-77
2023/03/10 11:13:29;;;;;;;20.43;13.17;;;2.20;86.30;;;;;;5095483;28;20495;-77
2023/03/10 11:15:59;;;;;;;21.48;14.48;;;2.10;86.20;;;;;;5095572;28;20039;-77
2023/03/10 11:18:35;;;;;;;21.30;13.80;;;2.00;86.20;;;;;;5095651;28;20483;-77
2023/03/10 11:21:10;;;;;;;21.57;13.57;;;2.40;86.50;;;;;;5079112;28;20470;-77
2023/03/10 11:24:21;;;;;;;21.58;13.55;;;2.00;86.30;;;;;;5078511;28;20146;-77
2023/03/10 11:26:50;;;;;;;22.60;14.53;;;2.00;86.30;;;;;;5078705;28;20055;-79
2023/03/10 11:29:47;;;;;;;22.70;13.73;;;1.90;86.20;;;;;;5078703;28;20043;-77
2023/03/10 11:32:49;;;;;;;22.80;14.03;;;1.90;86.30;;;;;;5058454;28;20047;-78
2023/03/10 11:35:18;;;;;;;21.87;14.17;;;1.90;86.40;;;;;;5092874;28;20036;-78
2023/03/10 11:37:50;;;;;;;21.73;12.97;;;1.90;86.50;;;;;;5094767;28;20043;-78
2023/03/10 11:40:24;;;;;;;22.93;14.20;;;1.90;86.50;;;;;;5078940;28;20043;-78
2023/03/10 11:43:48;;;;;;;21.43;13.10;;;1.90;86.50;;;;;;5083024;28;20035;-77
2023/03/10 11:46:39;;;;;;;22.50;13.90;;;1.90;86.50;;;;;;5022270;28;20051;-77
2023/03/10 11:49:16;;;;;;;21.87;14.03;;;1.90;86.60;;;;;;5075944;28;20031;-78
2023/03/10 11:51:51;;;;;;;19.10;12.60;;;1.80;86.60;;;;;;5066362;28;20055;-78
2023/03/10 11:54:20;;;;;;;23.03;13.57;;;1.80;86.70;;;;;;5078931;28;20028;-78
2023/03/10 11:56:48;;;;;;;21.00;13.20;;;1.90;86.60;;;;;;5079163;28;20044;-78
2023/03/10 11:59:17;;;;;;;21.67;13.80;;;2.10;86.80;;;;;;5079404;28;20123;-77
2023/03/10 12:01:54;;;;;;;22.03;13.20;;;2.10;86.90;;;;;;5062598;28;20040;-78
2023/03/10 12:04:46;;;;;;;19.53;12.47;;;1.90;86.70;;;;;;5062644;28;20070;-78
2023/03/10 12:07:18;;;;;;;18.40;11.57;;;1.80;86.70;;;;;;5062075;28;20089;-78
2023/03/10 12:09:49;;;;;;;19.63;12.03;;;1.80;86.60;;;;;;5082912;28;20032;-78
2023/03/10 12:12:19;;;;;;;18.47;11.63;;;1.80;86.70;;;;;;5082184;28;20039;-78
2023/03/10 12:14:45;;;;;;;20.37;11.77;;;1.80;86.70;;;;;;5082474;28;20387;-77
2023/03/10 12:17:14;;;;;;;18.43;11.53;;;1.80;86.70;;;;;;5082783;28;20048;-77
2023/03/10 12:20:14;;;;;;;17.83;10.63;;;1.80;86.80;;;;;;5099053;28;20510;-78
2023/03/10 12:22:58;;;;;;;18.43;11.40;;;1.80;86.80;;;;;;5098785;28;20063;-77
2023/03/10 12:25:31;;;;;;;17.53;11.13;;;1.90;86.90;;;;;;5082339;28;20082;-77
2023/03/10 12:28:15;;;;;;;21.67;12.07;;;2.00;86.90;;;;;;5098782;28;20047;-78
2023/03/10 12:30:59;;;;;;;17.40;11.03;;;1.80;86.80;;;;;;5082444;28;20047;-78
2023/03/10 12:33:36;;;;;;;16.20;10.83;;;1.80;86.90;;;;;;5081967;28;20168;-77
2023/03/10 12:36:10;;;;;;;17.77;10.33;;;1.90;86.90;;;;;;5081821;28;20043;-77
2023/03/10 12:38:45;;;;;;;17.92;10.93;;;1.80;86.90;;;;;;5081856;28;20046;-78
2023/03/10 12:41:38;;;;;;;19.03;11.07;;;2.10;87.20;;;;;;5081637;28;20040;-77
2023/03/10 12:44:22;;;;;;;18.60;11.40;;;1.80;87.00;;;;;;5094700;28;20054;-77
2023/03/10 12:46:58;;;;;;;19.23;11.33;;;1.90;87.10;;;;;;5081763;28;20043;-78
2023/03/10 12:49:39;;;;;;;19.73;12.10;;;1.90;86.90;;;;;;5098841;28;20481;-77
2023/03/10 12:52:43;;;;;;;16.87;11.07;;;2.40;87.40;;;;;;5081501;28;20035;-78